aviador You're here:

PAPO Decoded Metar

POINT HOPE in AK, USA
Report Time2017-11-23 21:56:00
UTC Time2017-11-23 22:20:33
Flight Rules vfr VFR
Wind300° at 28 Gusting to 34 kt
W.Decomp.*RWY 01: 4.4 kt HW 27.7 kt LCW
W.Rank300° ranks 25
Current wind is above 300° avg. (9.3)
Visibility9999 m
Phenomena:Light Snow
Clouds:Overcast 035 Hf
Expected CloudBase > 1,600 ft AGL from Temp-Dew spread
Ceiling3,500 ft
Temp-4°C (ISA -19)
Dew Point-8°C (74% RH)
AAT-17.0°C
QNH1004 hPa
Density Alt-1,962 ft
Elevation20 ft
Report Wrong Elevation
Raw Report
PAPO 232156Z AUTO 30028G34KT 9SM -SN OVC035 M04/M08 A2966 RMK AO2
PK WND 29036/2129 SLP043 P0000 T10391078 FZRANO=

Extra information for PAPO:More info

Metar Taf Metar & Taf Last 4 Metars F.Rules Stats Wind Profile Meteogram Temp Stats Airport Information Weather charts Add Link Nearby VenuesMetar ALERT Operation Metar Decoded Social comments

AIRNAV info for PAPO